sensor_id;sensor_type;location;lat;lon;timestamp;P1;durP1;ratioP1;P2;durP2;ratioP2
1380;SDS011;684;48.342;10.096;2022-12-28T00:01:03;12.90;;;9.10;;
1380;SDS011;684;48.342;10.096;2022-12-28T00:03:32;15.37;;;8.90;;
1380;SDS011;684;48.342;10.096;2022-12-28T00:05:58;15.13;;;8.70;;
1380;SDS011;684;48.342;10.096;2022-12-28T00:08:25;18.50;;;10.53;;
1380;SDS011;684;48.342;10.096;2022-12-28T00:10:52;16.83;;;10.00;;
1380;SDS011;684;48.342;10.096;2022-12-28T00:13:24;13.77;;;9.20;;
1380;SDS011;684;48.342;10.096;2022-12-28T00:15:52;13.00;;;8.57;;
1380;SDS011;684;48.342;10.096;2022-12-28T00:18:19;13.20;;;9.20;;
1380;SDS011;684;48.342;10.096;2022-12-28T00:20:54;15.40;;;9.83;;
1380;SDS011;684;48.342;10.096;2022-12-28T00:23:21;14.57;;;8.80;;
1380;SDS011;684;48.342;10.096;2022-12-28T00:25:48;12.67;;;8.80;;
1380;SDS011;684;48.342;10.096;2022-12-28T00:28:15;19.33;;;9.70;;
1380;SDS011;684;48.342;10.096;2022-12-28T00:30:41;14.00;;;9.80;;
1380;SDS011;684;48.342;10.096;2022-12-28T00:33:09;16.60;;;10.00;;
1380;SDS011;684;48.342;10.096;2022-12-28T00:35:36;16.13;;;10.80;;
1380;SDS011;684;48.342;10.096;2022-12-28T00:38:03;14.00;;;10.23;;
1380;SDS011;684;48.342;10.096;2022-12-28T00:40:30;16.23;;;10.57;;
1380;SDS011;684;48.342;10.096;2022-12-28T00:42:57;21.23;;;10.47;;
1380;SDS011;684;48.342;10.096;2022-12-28T00:45:24;14.63;;;9.90;;
1380;SDS011;684;48.342;10.096;2022-12-28T00:47:51;15.40;;;10.40;;
1380;SDS011;684;48.342;10.096;2022-12-28T00:50:19;16.10;;;10.80;;
1380;SDS011;684;48.342;10.096;2022-12-28T00:52:45;14.73;;;10.30;;
1380;SDS011;684;48.342;10.096;2022-12-28T00:55:12;15.33;;;9.23;;
1380;SDS011;684;48.342;10.096;2022-12-28T00:57:39;13.77;;;9.47;;
1380;SDS011;684;48.342;10.096;2022-12-28T01:00:06;12.93;;;8.97;;
1380;SDS011;684;48.342;10.096;2022-12-28T01:02:34;14.00;;;10.10;;
1380;SDS011;684;48.342;10.096;2022-12-28T01:05:00;13.70;;;9.83;;
1380;SDS011;684;48.342;10.096;2022-12-28T01:07:28;15.13;;;10.03;;
1380;SDS011;684;48.342;10.096;2022-12-28T01:09:55;16.03;;;9.40;;
1380;SDS011;684;48.342;10.096;2022-12-28T01:12:22;14.90;;;10.10;;
1380;SDS011;684;48.342;10.096;2022-12-28T01:14:49;14.30;;;10.20;;
1380;SDS011;684;48.342;10.096;2022-12-28T01:17:15;13.77;;;10.10;;
1380;SDS011;684;48.342;10.096;2022-12-28T01:19:42;13.47;;;9.43;;
1380;SDS011;684;48.342;10.096;2022-12-28T01:22:09;14.40;;;10.47;;
1380;SDS011;684;48.342;10.096;2022-12-28T01:24:37;15.67;;;9.80;;
1380;SDS011;684;48.342;10.096;2022-12-28T01:27:04;13.30;;;9.30;;
1380;SDS011;684;48.342;10.096;2022-12-28T01:29:30;14.17;;;9.53;;
1380;SDS011;684;48.342;10.096;2022-12-28T01:31:57;14.33;;;10.03;;
1380;SDS011;684;48.342;10.096;2022-12-28T01:34:24;12.33;;;8.67;;
1380;SDS011;684;48.342;10.096;2022-12-28T01:36:51;14.70;;;10.10;;
1380;SDS011;684;48.342;10.096;2022-12-28T01:39:18;13.33;;;9.03;;
1380;SDS011;684;48.342;10.096;2022-12-28T01:41:46;13.43;;;9.40;;
1380;SDS011;684;48.342;10.096;2022-12-28T01:47:11;12.90;;;8.80;;
1380;SDS011;684;48.342;10.096;2022-12-28T01:49:41;13.83;;;9.30;;
1380;SDS011;684;48.342;10.096;2022-12-28T01:52:13;13.10;;;8.80;;
1380;SDS011;684;48.342;10.096;2022-12-28T01:54:44;16.13;;;10.23;;
1380;SDS011;684;48.342;10.096;2022-12-28T01:57:15;18.13;;;9.13;;
1380;SDS011;684;48.342;10.096;2022-12-28T01:59:44;15.37;;;11.37;;
1380;SDS011;684;48.342;10.096;2022-12-28T02:02:16;13.23;;;9.43;;
1380;SDS011;684;48.342;10.096;2022-12-28T02:04:44;13.70;;;9.87;;
1380;SDS011;684;48.342;10.096;2022-12-28T02:07:12;14.03;;;8.90;;
1380;SDS011;684;48.342;10.096;2022-12-28T02:09:43;14.87;;;10.90;;
1380;SDS011;684;48.342;10.096;2022-12-28T02:12:12;13.63;;;9.60;;
1380;SDS011;684;48.342;10.096;2022-12-28T02:14:42;12.20;;;9.10;;
1380;SDS011;684;48.342;10.096;2022-12-28T02:17:09;13.97;;;10.23;;
1380;SDS011;684;48.342;10.096;2022-12-28T02:19:40;13.97;;;9.93;;
1380;SDS011;684;48.342;10.096;2022-12-28T02:22:18;14.90;;;10.20;;
1380;SDS011;684;48.342;10.096;2022-12-28T02:28:15;17.97;;;10.60;;
1380;SDS011;684;48.342;10.096;2022-12-28T02:31:00;15.33;;;9.90;;
1380;SDS011;684;48.342;10.096;2022-12-28T02:33:33;14.33;;;9.67;;
1380;SDS011;684;48.342;10.096;2022-12-28T02:36:07;16.37;;;10.00;;
1380;SDS011;684;48.342;10.096;2022-12-28T02:38:39;13.67;;;9.87;;
1380;SDS011;684;48.342;10.096;2022-12-28T02:41:11;14.80;;;10.97;;
1380;SDS011;684;48.342;10.096;2022-12-28T02:43:40;15.33;;;10.60;;
1380;SDS011;684;48.342;10.096;2022-12-28T02:46:09;15.40;;;11.20;;
1380;SDS011;684;48.342;10.096;2022-12-28T02:48:54;16.13;;;10.60;;
1380;SDS011;684;48.342;10.096;2022-12-28T02:51:51;16.60;;;10.33;;
1380;SDS011;684;48.342;10.096;2022-12-28T02:54:43;14.83;;;9.40;;
1380;SDS011;684;48.342;10.096;2022-12-28T02:57:56;16.57;;;11.27;;
1380;SDS011;684;48.342;10.096;2022-12-28T03:00:38;15.77;;;10.87;;
1380;SDS011;684;48.342;10.096;2022-12-28T03:03:20;16.37;;;10.50;;
1380;SDS011;684;48.342;10.096;2022-12-28T03:05:58;16.27;;;10.67;;
1380;SDS011;684;48.342;10.096;2022-12-28T03:08:52;16.43;;;10.97;;
1380;SDS011;684;48.342;10.096;2022-12-28T03:11:22;17.53;;;11.80;;
1380;SDS011;684;48.342;10.096;2022-12-28T03:13:57;15.80;;;10.63;;
1380;SDS011;684;48.342;10.096;2022-12-28T03:16:27;15.30;;;10.73;;
1380;SDS011;684;48.342;10.096;2022-12-28T03:18:59;15.30;;;11.00;;
1380;SDS011;684;48.342;10.096;2022-12-28T03:21:47;18.13;;;10.63;;
1380;SDS011;684;48.342;10.096;2022-12-28T03:24:34;15.47;;;10.30;;
1380;SDS011;684;48.342;10.096;2022-12-28T03:27:21;15.37;;;10.90;;
1380;SDS011;684;48.342;10.096;2022-12-28T03:30:06;15.40;;;10.30;;
1380;SDS011;684;48.342;10.096;2022-12-28T03:32:57;16.10;;;11.00;;
1380;SDS011;684;48.342;10.096;2022-12-28T03:35:27;16.80;;;11.40;;
1380;SDS011;684;48.342;10.096;2022-12-28T03:38:01;19.30;;;12.53;;
1380;SDS011;684;48.342;10.096;2022-12-28T03:40:30;19.10;;;12.70;;
1380;SDS011;684;48.342;10.096;2022-12-28T03:43:03;18.03;;;11.23;;
1380;SDS011;684;48.342;10.096;2022-12-28T03:45:53;18.67;;;13.27;;
1380;SDS011;684;48.342;10.096;2022-12-28T03:48:23;19.60;;;12.10;;
1380;SDS011;684;48.342;10.096;2022-12-28T03:50:52;20.20;;;13.20;;
1380;SDS011;684;48.342;10.096;2022-12-28T03:53:21;20.10;;;11.30;;
1380;SDS011;684;48.342;10.096;2022-12-28T03:55:52;17.60;;;12.80;;
1380;SDS011;684;48.342;10.096;2022-12-28T03:58:29;18.43;;;13.27;;
1380;SDS011;684;48.342;10.096;2022-12-28T04:00:56;16.77;;;11.77;;
1380;SDS011;684;48.342;10.096;2022-12-28T04:03:23;17.27;;;11.03;;
1380;SDS011;684;48.342;10.096;2022-12-28T04:05:49;16.67;;;12.83;;
1380;SDS011;684;48.342;10.096;2022-12-28T04:08:17;19.53;;;12.10;;
1380;SDS011;684;48.342;10.096;2022-12-28T04:10:44;17.20;;;12.07;;
1380;SDS011;684;48.342;10.096;2022-12-28T04:13:11;16.40;;;11.80;;
1380;SDS011;684;48.342;10.096;2022-12-28T04:15:38;17.87;;;12.20;;
1380;SDS011;684;48.342;10.096;2022-12-28T04:18:04;17.40;;;11.47;;
1380;SDS011;684;48.342;10.096;2022-12-28T04:20:31;16.60;;;12.23;;
1380;SDS011;684;48.342;10.096;2022-12-28T04:23:00;16.07;;;11.27;;
1380;SDS011;684;48.342;10.096;2022-12-28T04:25:26;16.93;;;12.07;;
1380;SDS011;684;48.342;10.096;2022-12-28T04:27:53;17.83;;;12.30;;
1380;SDS011;684;48.342;10.096;2022-12-28T04:30:20;16.63;;;10.90;;
1380;SDS011;684;48.342;10.096;2022-12-28T04:32:47;17.80;;;12.70;;
1380;SDS011;684;48.342;10.096;2022-12-28T04:35:13;17.73;;;12.00;;
1380;SDS011;684;48.342;10.096;2022-12-28T04:37:40;20.03;;;12.97;;
1380;SDS011;684;48.342;10.096;2022-12-28T04:40:09;19.13;;;12.57;;
1380;SDS011;684;48.342;10.096;2022-12-28T04:42:36;17.53;;;12.07;;
1380;SDS011;684;48.342;10.096;2022-12-28T04:45:03;19.53;;;12.10;;
1380;SDS011;684;48.342;10.096;2022-12-28T04:47:31;17.10;;;12.20;;
1380;SDS011;684;48.342;10.096;2022-12-28T04:49:57;18.60;;;12.73;;
1380;SDS011;684;48.342;10.096;2022-12-28T04:52:24;16.47;;;12.57;;
1380;SDS011;684;48.342;10.096;2022-12-28T04:54:51;18.03;;;12.13;;
1380;SDS011;684;48.342;10.096;2022-12-28T04:57:19;19.03;;;12.17;;
1380;SDS011;684;48.342;10.096;2022-12-28T04:59:46;17.33;;;11.80;;
1380;SDS011;684;48.342;10.096;2022-12-28T05:02:12;17.70;;;12.37;;
1380;SDS011;684;48.342;10.096;2022-12-28T05:04:39;16.57;;;11.00;;
1380;SDS011;684;48.342;10.096;2022-12-28T05:07:06;16.20;;;11.03;;
1380;SDS011;684;48.342;10.096;2022-12-28T05:09:32;14.50;;;9.73;;
1380;SDS011;684;48.342;10.096;2022-12-28T05:11:59;15.60;;;9.50;;
1380;SDS011;684;48.342;10.096;2022-12-28T05:14:27;14.57;;;9.70;;
1380;SDS011;684;48.342;10.096;2022-12-28T05:16:54;16.23;;;10.47;;
1380;SDS011;684;48.342;10.096;2022-12-28T05:19:21;15.40;;;10.10;;
1380;SDS011;684;48.342;10.096;2022-12-28T05:21:47;16.70;;;10.53;;
1380;SDS011;684;48.342;10.096;2022-12-28T05:24:14;14.83;;;10.27;;
1380;SDS011;684;48.342;10.096;2022-12-28T05:26:41;15.43;;;9.93;;
1380;SDS011;684;48.342;10.096;2022-12-28T05:29:08;14.97;;;10.17;;
1380;SDS011;684;48.342;10.096;2022-12-28T05:31:36;14.87;;;10.20;;
1380;SDS011;684;48.342;10.096;2022-12-28T05:34:03;17.27;;;10.43;;
1380;SDS011;684;48.342;10.096;2022-12-28T05:36:29;13.63;;;9.43;;
1380;SDS011;684;48.342;10.096;2022-12-28T05:39:00;13.47;;;9.83;;
1380;SDS011;684;48.342;10.096;2022-12-28T05:41:27;13.20;;;9.33;;
1380;SDS011;684;48.342;10.096;2022-12-28T05:43:55;14.10;;;8.87;;
1380;SDS011;684;48.342;10.096;2022-12-28T05:46:24;14.03;;;9.53;;
1380;SDS011;684;48.342;10.096;2022-12-28T05:48:53;13.80;;;9.37;;
1380;SDS011;684;48.342;10.096;2022-12-28T05:51:21;13.67;;;9.00;;
1380;SDS011;684;48.342;10.096;2022-12-28T05:53:50;13.10;;;9.10;;
1380;SDS011;684;48.342;10.096;2022-12-28T05:56:17;14.10;;;8.47;;
1380;SDS011;684;48.342;10.096;2022-12-28T05:58:46;13.93;;;9.40;;
1380;SDS011;684;48.342;10.096;2022-12-28T06:01:18;14.50;;;9.97;;
1380;SDS011;684;48.342;10.096;2022-12-28T06:03:46;11.63;;;7.93;;
1380;SDS011;684;48.342;10.096;2022-12-28T06:06:18;13.33;;;8.53;;
1380;SDS011;684;48.342;10.096;2022-12-28T06:08:46;13.33;;;8.87;;
1380;SDS011;684;48.342;10.096;2022-12-28T06:11:14;16.10;;;9.03;;
1380;SDS011;684;48.342;10.096;2022-12-28T06:13:42;13.00;;;8.37;;
1380;SDS011;684;48.342;10.096;2022-12-28T06:16:10;12.93;;;9.63;;
1380;SDS011;684;48.342;10.096;2022-12-28T06:18:38;17.73;;;9.53;;
1380;SDS011;684;48.342;10.096;2022-12-28T06:21:06;15.07;;;9.20;;
1380;SDS011;684;48.342;10.096;2022-12-28T06:23:35;14.60;;;10.73;;
1380;SDS011;684;48.342;10.096;2022-12-28T06:26:04;14.53;;;9.80;;
1380;SDS011;684;48.342;10.096;2022-12-28T06:28:31;18.60;;;11.40;;
1380;SDS011;684;48.342;10.096;2022-12-28T06:31:01;15.80;;;11.50;;
1380;SDS011;684;48.342;10.096;2022-12-28T06:33:29;16.80;;;11.50;;
1380;SDS011;684;48.342;10.096;2022-12-28T06:35:56;17.30;;;12.10;;
1380;SDS011;684;48.342;10.096;2022-12-28T06:38:23;19.93;;;11.80;;
1380;SDS011;684;48.342;10.096;2022-12-28T06:40:52;15.00;;;10.90;;
1380;SDS011;684;48.342;10.096;2022-12-28T06:43:19;14.80;;;10.80;;
1380;SDS011;684;48.342;10.096;2022-12-28T06:45:52;16.10;;;11.00;;
1380;SDS011;684;48.342;10.096;2022-12-28T06:48:20;16.73;;;12.00;;
1380;SDS011;684;48.342;10.096;2022-12-28T06:50:52;16.80;;;11.53;;
1380;SDS011;684;48.342;10.096;2022-12-28T06:53:20;15.70;;;11.30;;
1380;SDS011;684;48.342;10.096;2022-12-28T06:55:52;16.20;;;11.10;;
1380;SDS011;684;48.342;10.096;2022-12-28T06:58:19;15.77;;;11.03;;
1380;SDS011;684;48.342;10.096;2022-12-28T07:00:46;15.20;;;10.30;;
1380;SDS011;684;48.342;10.096;2022-12-28T07:03:13;13.93;;;9.50;;
1380;SDS011;684;48.342;10.096;2022-12-28T07:05:40;21.43;;;11.60;;
1380;SDS011;684;48.342;10.096;2022-12-28T07:08:06;15.90;;;11.63;;
1380;SDS011;684;48.342;10.096;2022-12-28T07:10:33;15.23;;;10.57;;
1380;SDS011;684;48.342;10.096;2022-12-28T07:13:02;17.97;;;10.93;;
1380;SDS011;684;48.342;10.096;2022-12-28T07:15:28;12.07;;;8.77;;
1380;SDS011;684;48.342;10.096;2022-12-28T07:17:56;15.07;;;9.57;;
1380;SDS011;684;48.342;10.096;2022-12-28T07:20:23;14.00;;;9.47;;
1380;SDS011;684;48.342;10.096;2022-12-28T07:22:51;14.30;;;9.83;;
1380;SDS011;684;48.342;10.096;2022-12-28T07:25:18;12.47;;;8.87;;
1380;SDS011;684;48.342;10.096;2022-12-28T07:27:45;14.10;;;10.00;;
1380;SDS011;684;48.342;10.096;2022-12-28T07:30:13;12.43;;;7.80;;
1380;SDS011;684;48.342;10.096;2022-12-28T07:32:40;11.83;;;8.00;;
1380;SDS011;684;48.342;10.096;2022-12-28T07:35:08;14.10;;;9.00;;
1380;SDS011;684;48.342;10.096;2022-12-28T07:37:35;12.20;;;8.47;;
1380;SDS011;684;48.342;10.096;2022-12-28T07:40:02;11.63;;;8.57;;
1380;SDS011;684;48.342;10.096;2022-12-28T07:42:29;13.23;;;8.53;;
1380;SDS011;684;48.342;10.096;2022-12-28T07:44:56;15.17;;;9.10;;
1380;SDS011;684;48.342;10.096;2022-12-28T07:47:24;12.07;;;8.77;;
1380;SDS011;684;48.342;10.096;2022-12-28T07:49:51;12.53;;;8.03;;
1380;SDS011;684;48.342;10.096;2022-12-28T07:52:18;10.33;;;7.17;;
1380;SDS011;684;48.342;10.096;2022-12-28T07:54:45;12.33;;;7.30;;
1380;SDS011;684;48.342;10.096;2022-12-28T07:57:11;11.50;;;6.30;;
1380;SDS011;684;48.342;10.096;2022-12-28T07:59:38;11.80;;;5.90;;
1380;SDS011;684;48.342;10.096;2022-12-28T08:02:07;9.47;;;5.70;;
1380;SDS011;684;48.342;10.096;2022-12-28T08:04:36;8.77;;;5.53;;
1380;SDS011;684;48.342;10.096;2022-12-28T08:07:02;9.20;;;5.80;;
1380;SDS011;684;48.342;10.096;2022-12-28T08:09:29;12.97;;;5.30;;
1380;SDS011;684;48.342;10.096;2022-12-28T08:11:56;10.10;;;5.40;;
1380;SDS011;684;48.342;10.096;2022-12-28T08:14:23;8.40;;;4.60;;
1380;SDS011;684;48.342;10.096;2022-12-28T08:16:50;7.53;;;4.40;;
1380;SDS011;684;48.342;10.096;2022-12-28T08:19:17;8.80;;;4.40;;
1380;SDS011;684;48.342;10.096;2022-12-28T08:21:45;7.60;;;4.60;;
1380;SDS011;684;48.342;10.096;2022-12-28T08:24:13;7.23;;;3.87;;
1380;SDS011;684;48.342;10.096;2022-12-28T08:26:40;6.97;;;3.27;;
1380;SDS011;684;48.342;10.096;2022-12-28T08:29:09;7.47;;;3.40;;
1380;SDS011;684;48.342;10.096;2022-12-28T08:31:39;6.97;;;3.50;;
1380;SDS011;684;48.342;10.096;2022-12-28T08:34:08;6.20;;;3.20;;
1380;SDS011;684;48.342;10.096;2022-12-28T08:36:37;5.87;;;3.23;;
1380;SDS011;684;48.342;10.096;2022-12-28T08:39:06;12.10;;;3.70;;
1380;SDS011;684;48.342;10.096;2022-12-28T08:41:33;5.70;;;2.70;;
1380;SDS011;684;48.342;10.096;2022-12-28T08:44:00;5.57;;;2.80;;
1380;SDS011;684;48.342;10.096;2022-12-28T08:46:28;5.60;;;2.40;;
1380;SDS011;684;48.342;10.096;2022-12-28T08:48:56;5.70;;;2.53;;
1380;SDS011;684;48.342;10.096;2022-12-28T08:51:26;5.37;;;2.63;;
1380;SDS011;684;48.342;10.096;2022-12-28T08:53:54;7.03;;;2.90;;
1380;SDS011;684;48.342;10.096;2022-12-28T08:56:23;5.80;;;2.30;;
1380;SDS011;684;48.342;10.096;2022-12-28T08:58:51;5.17;;;2.83;;
1380;SDS011;684;48.342;10.096;2022-12-28T09:01:20;5.50;;;2.57;;
1380;SDS011;684;48.342;10.096;2022-12-28T09:03:50;9.03;;;2.70;;
1380;SDS011;684;48.342;10.096;2022-12-28T09:06:18;5.50;;;2.90;;
1380;SDS011;684;48.342;10.096;2022-12-28T09:08:48;4.87;;;2.20;;
1380;SDS011;684;48.342;10.096;2022-12-28T09:11:16;5.17;;;2.40;;
1380;SDS011;684;48.342;10.096;2022-12-28T09:13:44;5.33;;;2.40;;
1380;SDS011;684;48.342;10.096;2022-12-28T09:16:12;5.73;;;3.03;;
1380;SDS011;684;48.342;10.096;2022-12-28T09:18:40;4.77;;;2.10;;
1380;SDS011;684;48.342;10.096;2022-12-28T09:21:09;6.27;;;2.47;;
1380;SDS011;684;48.342;10.096;2022-12-28T09:23:38;5.30;;;2.10;;
1380;SDS011;684;48.342;10.096;2022-12-28T09:26:06;7.63;;;2.93;;
1380;SDS011;684;48.342;10.096;2022-12-28T09:28:34;4.40;;;2.10;;
1380;SDS011;684;48.342;10.096;2022-12-28T09:31:03;5.60;;;2.30;;
1380;SDS011;684;48.342;10.096;2022-12-28T09:33:31;8.30;;;2.93;;
1380;SDS011;684;48.342;10.096;2022-12-28T09:36:15;4.90;;;2.50;;
1380;SDS011;684;48.342;10.096;2022-12-28T09:38:43;5.20;;;2.30;;
1380;SDS011;684;48.342;10.096;2022-12-28T09:41:11;5.43;;;2.57;;
1380;SDS011;684;48.342;10.096;2022-12-28T09:43:46;7.50;;;2.40;;
1380;SDS011;684;48.342;10.096;2022-12-28T09:46:18;6.40;;;2.93;;
1380;SDS011;684;48.342;10.096;2022-12-28T09:48:49;7.27;;;3.30;;
1380;SDS011;684;48.342;10.096;2022-12-28T09:51:20;5.90;;;3.30;;
1380;SDS011;684;48.342;10.096;2022-12-28T09:53:54;6.60;;;3.70;;
1380;SDS011;684;48.342;10.096;2022-12-28T09:56:22;6.37;;;4.00;;
1380;SDS011;684;48.342;10.096;2022-12-28T09:58:51;6.40;;;4.07;;
1380;SDS011;684;48.342;10.096;2022-12-28T10:01:20;6.83;;;4.10;;
1380;SDS011;684;48.342;10.096;2022-12-28T10:03:48;6.00;;;3.10;;
1380;SDS011;684;48.342;10.096;2022-12-28T10:06:15;8.03;;;3.33;;
1380;SDS011;684;48.342;10.096;2022-12-28T10:08:46;7.80;;;4.37;;
1380;SDS011;684;48.342;10.096;2022-12-28T10:11:16;9.00;;;5.23;;
1380;SDS011;684;48.342;10.096;2022-12-28T10:13:45;6.13;;;3.47;;
1380;SDS011;684;48.342;10.096;2022-12-28T10:16:21;12.50;;;7.00;;
1380;SDS011;684;48.342;10.096;2022-12-28T10:18:49;7.23;;;4.67;;
1380;SDS011;684;48.342;10.096;2022-12-28T10:21:16;8.63;;;3.83;;
1380;SDS011;684;48.342;10.096;2022-12-28T10:23:45;5.13;;;3.00;;
1380;SDS011;684;48.342;10.096;2022-12-28T10:26:15;5.53;;;2.87;;
1380;SDS011;684;48.342;10.096;2022-12-28T10:28:45;5.30;;;3.03;;
1380;SDS011;684;48.342;10.096;2022-12-28T10:31:14;6.00;;;3.20;;
1380;SDS011;684;48.342;10.096;2022-12-28T10:33:49;7.40;;;3.27;;
1380;SDS011;684;48.342;10.096;2022-12-28T10:36:16;6.03;;;2.63;;
1380;SDS011;684;48.342;10.096;2022-12-28T10:38:47;6.00;;;2.37;;
1380;SDS011;684;48.342;10.096;2022-12-28T10:41:18;4.93;;;2.17;;
1380;SDS011;684;48.342;10.096;2022-12-28T10:43:46;6.70;;;2.70;;
1380;SDS011;684;48.342;10.096;2022-12-28T10:46:17;6.90;;;3.13;;
1380;SDS011;684;48.342;10.096;2022-12-28T10:48:48;7.43;;;3.60;;
1380;SDS011;684;48.342;10.096;2022-12-28T10:51:18;7.40;;;3.20;;
1380;SDS011;684;48.342;10.096;2022-12-28T10:53:47;6.20;;;3.07;;
1380;SDS011;684;48.342;10.096;2022-12-28T10:56:19;6.17;;;2.63;;
1380;SDS011;684;48.342;10.096;2022-12-28T10:58:49;5.73;;;2.50;;
1380;SDS011;684;48.342;10.096;2022-12-28T11:01:17;6.00;;;2.80;;
1380;SDS011;684;48.342;10.096;2022-12-28T11:04:00;6.80;;;2.63;;
1380;SDS011;684;48.342;10.096;2022-12-28T11:06:30;5.30;;;2.30;;
1380;SDS011;684;48.342;10.096;2022-12-28T11:08:59;5.67;;;1.93;;
1380;SDS011;684;48.342;10.096;2022-12-28T11:11:29;5.90;;;2.50;;
1380;SDS011;684;48.342;10.096;2022-12-28T11:13:57;5.90;;;2.00;;
1380;SDS011;684;48.342;10.096;2022-12-28T11:16:27;4.73;;;1.20;;
1380;SDS011;684;48.342;10.096;2022-12-28T11:18:59;5.40;;;1.73;;
1380;SDS011;684;48.342;10.096;2022-12-28T11:21:26;4.00;;;1.47;;
1380;SDS011;684;48.342;10.096;2022-12-28T11:23:53;4.57;;;1.50;;
1380;SDS011;684;48.342;10.096;2022-12-28T11:26:20;6.67;;;1.50;;
1380;SDS011;684;48.342;10.096;2022-12-28T11:28:48;7.30;;;1.13;;
1380;SDS011;684;48.342;10.096;2022-12-28T11:31:18;3.97;;;1.03;;
1380;SDS011;684;48.342;10.096;2022-12-28T11:33:49;7.43;;;1.40;;
1380;SDS011;684;48.342;10.096;2022-12-28T11:36:19;3.97;;;1.27;;
1380;SDS011;684;48.342;10.096;2022-12-28T11:38:49;4.33;;;1.40;;
1380;SDS011;684;48.342;10.096;2022-12-28T11:44:07;5.70;;;1.40;;
1380;SDS011;684;48.342;10.096;2022-12-28T11:46:55;5.00;;;1.70;;
1380;SDS011;684;48.342;10.096;2022-12-28T11:49:27;4.20;;;1.30;;
1380;SDS011;684;48.342;10.096;2022-12-28T12:04:29;3.87;;;1.20;;
1380;SDS011;684;48.342;10.096;2022-12-28T12:10:14;6.30;;;1.70;;
1380;SDS011;684;48.342;10.096;2022-12-28T12:13:03;4.97;;;1.57;;
1380;SDS011;684;48.342;10.096;2022-12-28T12:16:07;5.30;;;1.77;;
1380;SDS011;684;48.342;10.096;2022-12-28T12:18:43;4.27;;;1.50;;
1380;SDS011;684;48.342;10.096;2022-12-28T12:21:19;6.10;;;1.97;;
1380;SDS011;684;48.342;10.096;2022-12-28T12:23:53;4.70;;;1.63;;
1380;SDS011;684;48.342;10.096;2022-12-28T12:26:32;4.73;;;1.57;;
1380;SDS011;684;48.342;10.096;2022-12-28T12:29:04;4.17;;;1.53;;
1380;SDS011;684;48.342;10.096;2022-12-28T12:31:40;5.40;;;1.80;;
1380;SDS011;684;48.342;10.096;2022-12-28T12:34:11;5.40;;;1.47;;
1380;SDS011;684;48.342;10.096;2022-12-28T12:36:54;7.13;;;1.80;;
1380;SDS011;684;48.342;10.096;2022-12-28T12:39:54;4.50;;;1.23;;
1380;SDS011;684;48.342;10.096;2022-12-28T12:42:43;4.40;;;1.40;;
1380;SDS011;684;48.342;10.096;2022-12-28T12:45:24;5.43;;;1.40;;
1380;SDS011;684;48.342;10.096;2022-12-28T12:48:08;3.83;;;1.27;;
1380;SDS011;684;48.342;10.096;2022-12-28T12:51:05;5.20;;;1.63;;
1380;SDS011;684;48.342;10.096;2022-12-28T12:53:43;4.33;;;1.73;;
1380;SDS011;684;48.342;10.096;2022-12-28T12:56:37;4.67;;;1.50;;
1380;SDS011;684;48.342;10.096;2022-12-28T12:59:29;4.40;;;1.87;;
1380;SDS011;684;48.342;10.096;2022-12-28T13:02:13;4.37;;;2.13;;
1380;SDS011;684;48.342;10.096;2022-12-28T13:04:53;4.63;;;2.10;;
1380;SDS011;684;48.342;10.096;2022-12-28T13:07:21;4.60;;;2.50;;
1380;SDS011;684;48.342;10.096;2022-12-28T13:09:51;7.00;;;2.77;;
1380;SDS011;684;48.342;10.096;2022-12-28T13:12:20;5.07;;;1.80;;
1380;SDS011;684;48.342;10.096;2022-12-28T13:14:51;4.50;;;2.00;;
1380;SDS011;684;48.342;10.096;2022-12-28T13:17:24;4.97;;;2.20;;
1380;SDS011;684;48.342;10.096;2022-12-28T13:20:06;6.53;;;1.60;;
1380;SDS011;684;48.342;10.096;2022-12-28T13:22:34;4.40;;;1.60;;
1380;SDS011;684;48.342;10.096;2022-12-28T13:25:00;4.10;;;1.50;;
1380;SDS011;684;48.342;10.096;2022-12-28T13:27:29;4.17;;;1.53;;
1380;SDS011;684;48.342;10.096;2022-12-28T13:29:59;4.73;;;1.17;;
1380;SDS011;684;48.342;10.096;2022-12-28T13:32:28;5.50;;;1.37;;
1380;SDS011;684;48.342;10.096;2022-12-28T13:35:00;5.40;;;1.30;;
1380;SDS011;684;48.342;10.096;2022-12-28T13:37:27;7.57;;;2.10;;
1380;SDS011;684;48.342;10.096;2022-12-28T13:40:07;4.83;;;1.93;;
1380;SDS011;684;48.342;10.096;2022-12-28T13:42:35;7.27;;;2.70;;
1380;SDS011;684;48.342;10.096;2022-12-28T13:45:13;8.17;;;1.90;;
1380;SDS011;684;48.342;10.096;2022-12-28T13:47:43;6.40;;;1.80;;
1380;SDS011;684;48.342;10.096;2022-12-28T13:50:13;6.13;;;1.53;;
1380;SDS011;684;48.342;10.096;2022-12-28T13:52:43;6.00;;;2.03;;
1380;SDS011;684;48.342;10.096;2022-12-28T13:55:14;4.20;;;1.30;;
1380;SDS011;684;48.342;10.096;2022-12-28T13:57:46;5.47;;;1.50;;
1380;SDS011;684;48.342;10.096;2022-12-28T14:00:16;8.60;;;2.17;;
1380;SDS011;684;48.342;10.096;2022-12-28T14:02:45;5.73;;;1.40;;
1380;SDS011;684;48.342;10.096;2022-12-28T14:05:14;7.53;;;1.67;;
1380;SDS011;684;48.342;10.096;2022-12-28T14:07:43;4.57;;;1.73;;
1380;SDS011;684;48.342;10.096;2022-12-28T14:10:10;4.23;;;1.33;;
1380;SDS011;684;48.342;10.096;2022-12-28T14:12:38;5.10;;;1.50;;
1380;SDS011;684;48.342;10.096;2022-12-28T14:15:05;4.33;;;1.60;;
1380;SDS011;684;48.342;10.096;2022-12-28T14:17:35;4.40;;;1.37;;
1380;SDS011;684;48.342;10.096;2022-12-28T14:20:05;4.67;;;1.40;;
1380;SDS011;684;48.342;10.096;2022-12-28T14:22:33;4.90;;;1.57;;
1380;SDS011;684;48.342;10.096;2022-12-28T14:25:02;4.10;;;1.40;;
1380;SDS011;684;48.342;10.096;2022-12-28T14:27:32;5.13;;;1.50;;
1380;SDS011;684;48.342;10.096;2022-12-28T14:30:01;7.40;;;1.70;;
1380;SDS011;684;48.342;10.096;2022-12-28T14:32:28;4.10;;;1.17;;
1380;SDS011;684;48.342;10.096;2022-12-28T14:34:55;4.73;;;1.50;;
1380;SDS011;684;48.342;10.096;2022-12-28T14:37:25;4.73;;;1.57;;
1380;SDS011;684;48.342;10.096;2022-12-28T14:39:57;4.77;;;1.43;;
1380;SDS011;684;48.342;10.096;2022-12-28T14:42:25;4.53;;;1.80;;
1380;SDS011;684;48.342;10.096;2022-12-28T14:44:54;4.13;;;1.30;;
1380;SDS011;684;48.342;10.096;2022-12-28T14:47:32;4.47;;;1.63;;
1380;SDS011;684;48.342;10.096;2022-12-28T14:50:00;4.33;;;1.50;;
1380;SDS011;684;48.342;10.096;2022-12-28T14:52:33;4.83;;;2.03;;
1380;SDS011;684;48.342;10.096;2022-12-28T14:55:18;4.00;;;1.17;;
1380;SDS011;684;48.342;10.096;2022-12-28T14:57:46;5.83;;;1.80;;
1380;SDS011;684;48.342;10.096;2022-12-28T15:00:20;4.40;;;1.70;;
1380;SDS011;684;48.342;10.096;2022-12-28T15:02:49;5.40;;;1.60;;
1380;SDS011;684;48.342;10.096;2022-12-28T15:05:39;5.83;;;1.43;;
1380;SDS011;684;48.342;10.096;2022-12-28T15:08:09;6.63;;;1.83;;
1380;SDS011;684;48.342;10.096;2022-12-28T15:10:38;6.50;;;1.63;;
1380;SDS011;684;48.342;10.096;2022-12-28T15:13:07;5.60;;;2.20;;
1380;SDS011;684;48.342;10.096;2022-12-28T15:15:34;6.37;;;2.43;;
1380;SDS011;684;48.342;10.096;2022-12-28T15:18:01;4.70;;;2.10;;
1380;SDS011;684;48.342;10.096;2022-12-28T15:20:28;4.80;;;1.50;;
1380;SDS011;684;48.342;10.096;2022-12-28T15:22:55;4.50;;;1.60;;
1380;SDS011;684;48.342;10.096;2022-12-28T15:25:23;4.90;;;1.70;;
1380;SDS011;684;48.342;10.096;2022-12-28T15:27:50;5.00;;;2.20;;
1380;SDS011;684;48.342;10.096;2022-12-28T15:30:18;4.73;;;1.90;;
1380;SDS011;684;48.342;10.096;2022-12-28T15:32:46;7.10;;;1.77;;
1380;SDS011;684;48.342;10.096;2022-12-28T15:35:13;5.73;;;1.20;;
1380;SDS011;684;48.342;10.096;2022-12-28T15:37:39;4.73;;;1.60;;
1380;SDS011;684;48.342;10.096;2022-12-28T15:40:07;4.53;;;1.50;;
1380;SDS011;684;48.342;10.096;2022-12-28T15:42:36;4.60;;;1.50;;
1380;SDS011;684;48.342;10.096;2022-12-28T15:45:03;6.03;;;2.53;;
1380;SDS011;684;48.342;10.096;2022-12-28T15:47:30;20.00;;;10.47;;